sensor_id;sensor_type;location;lat;lon;timestamp;pressure;altitude;pressure_sealevel;temperature;humidity
70314;BME280;57725;47.526;18.986;2023-05-20T00:01:12;100220.84;;;17.22;93.14
70314;BME280;57725;47.526;18.986;2023-05-20T00:03:40;100222.53;;;17.23;93.11
70314;BME280;57725;47.526;18.986;2023-05-20T00:06:06;100229.69;;;17.21;93.09
70314;BME280;57725;47.526;18.986;2023-05-20T00:08:31;100218.19;;;17.22;93.13
70314;BME280;57725;47.526;18.986;2023-05-20T00:10:59;100219.13;;;17.21;93.06
70314;BME280;57725;47.526;18.986;2023-05-20T00:13:27;100213.84;;;17.21;92.95
70314;BME280;57725;47.526;18.986;2023-05-20T00:15:52;100214.78;;;17.20;92.88
70314;BME280;57725;47.526;18.986;2023-05-20T00:18:17;100211.31;;;17.20;92.97
70314;BME280;57725;47.526;18.986;2023-05-20T00:20:47;100214.94;;;17.19;92.95
70314;BME280;57725;47.526;18.986;2023-05-20T00:23:24;100214.06;;;17.18;92.97
70314;BME280;57725;47.526;18.986;2023-05-20T00:25:52;100221.03;;;17.19;93.11
70314;BME280;57725;47.526;18.986;2023-05-20T00:28:17;100220.31;;;17.17;92.96
70314;BME280;57725;47.526;18.986;2023-05-20T00:30:43;100213.22;;;17.18;93.09
70314;BME280;57725;47.526;18.986;2023-05-20T00:33:11;100209.81;;;17.16;93.11
70314;BME280;57725;47.526;18.986;2023-05-20T00:35:36;100209.81;;;17.16;93.16
70314;BME280;57725;47.526;18.986;2023-05-20T00:38:04;100216.91;;;17.15;93.18
70314;BME280;57725;47.526;18.986;2023-05-20T00:40:34;100212.56;;;17.14;93.09
70314;BME280;57725;47.526;18.986;2023-05-20T00:42:59;100202.94;;;17.13;93.17
70314;BME280;57725;47.526;18.986;2023-05-20T00:45:25;100211.72;;;17.14;93.24
70314;BME280;57725;47.526;18.986;2023-05-20T00:47:51;100212.66;;;17.13;93.20
70314;BME280;57725;47.526;18.986;2023-05-20T00:50:16;100202.19;;;17.11;93.15
70314;BME280;57725;47.526;18.986;2023-05-20T00:52:48;100204.06;;;17.09;93.12
70314;BME280;57725;47.526;18.986;2023-05-20T00:55:15;100207.47;;;17.11;93.28
70314;BME280;57725;47.526;18.986;2023-05-20T00:57:43;100199.63;;;17.10;93.11
70314;BME280;57725;47.526;18.986;2023-05-20T01:00:09;100200.50;;;17.10;93.30
70314;BME280;57725;47.526;18.986;2023-05-20T01:02:35;100206.72;;;17.09;93.51
70314;BME280;57725;47.526;18.986;2023-05-20T01:05:00;100208.50;;;17.09;93.42
70314;BME280;57725;47.526;18.986;2023-05-20T01:07:28;100204.16;;;17.08;93.44
70314;BME280;57725;47.526;18.986;2023-05-20T01:09:54;100188.06;;;16.98;93.43
70314;BME280;57725;47.526;18.986;2023-05-20T01:12:27;100200.81;;;17.06;93.50
70314;BME280;57725;47.526;18.986;2023-05-20T01:14:58;100217.50;;;17.06;93.57
70314;BME280;57725;47.526;18.986;2023-05-20T01:17:30;100210.53;;;17.05;93.57
70314;BME280;57725;47.526;18.986;2023-05-20T01:19:58;100216.66;;;17.06;93.59
70314;BME280;57725;47.526;18.986;2023-05-20T01:22:25;100214.09;;;17.04;93.51
70314;BME280;57725;47.526;18.986;2023-05-20T01:24:53;100214.09;;;17.04;93.74
70314;BME280;57725;47.526;18.986;2023-05-20T01:27:22;100212.41;;;17.03;93.46
70314;BME280;57725;47.526;18.986;2023-05-20T01:29:49;100221.28;;;17.02;93.81
70314;BME280;57725;47.526;18.986;2023-05-20T01:32:23;100217.97;;;16.98;93.84
70314;BME280;57725;47.526;18.986;2023-05-20T01:34:53;100223.16;;;17.00;94.03
70314;BME280;57725;47.526;18.986;2023-05-20T01:37:20;100226.66;;;17.00;93.86
70314;BME280;57725;47.526;18.986;2023-05-20T01:39:48;100227.59;;;16.99;93.87
70314;BME280;57725;47.526;18.986;2023-05-20T01:42:14;100225.81;;;17.00;93.98
70314;BME280;57725;47.526;18.986;2023-05-20T01:44:40;100227.69;;;16.98;93.98
70314;BME280;57725;47.526;18.986;2023-05-20T01:47:08;100210.53;;;16.91;93.85
70314;BME280;57725;47.526;18.986;2023-05-20T01:49:33;100225.13;;;16.96;93.87
70314;BME280;57725;47.526;18.986;2023-05-20T01:51:59;100224.41;;;16.94;93.76
70314;BME280;57725;47.526;18.986;2023-05-20T01:54:30;100223.47;;;16.95;94.02
70314;BME280;57725;47.526;18.986;2023-05-20T01:56:55;100228.75;;;16.95;94.01
70314;BME280;57725;47.526;18.986;2023-05-20T01:59:23;100223.56;;;16.94;93.96
70314;BME280;57725;47.526;18.986;2023-05-20T02:01:50;100216.59;;;16.93;94.09
70314;BME280;57725;47.526;18.986;2023-05-20T02:04:16;100216.59;;;16.93;94.21
70314;BME280;57725;47.526;18.986;2023-05-20T02:06:43;100219.22;;;16.93;94.06
70314;BME280;57725;47.526;18.986;2023-05-20T02:09:08;100228.09;;;16.92;94.07
70314;BME280;57725;47.526;18.986;2023-05-20T02:11:36;100222.91;;;16.90;94.21
70314;BME280;57725;47.526;18.986;2023-05-20T02:14:01;100227.34;;;16.90;94.22
70314;BME280;57725;47.526;18.986;2023-05-20T02:16:29;100222.06;;;16.90;94.11
70314;BME280;57725;47.526;18.986;2023-05-20T02:18:55;100218.56;;;16.89;94.17
70314;BME280;57725;47.526;18.986;2023-05-20T02:21:24;100222.22;;;16.87;94.32
70314;BME280;57725;47.526;18.986;2023-05-20T02:23:52;100231.84;;;16.88;94.20
70314;BME280;57725;47.526;18.986;2023-05-20T02:26:17;100221.38;;;16.86;94.32
70314;BME280;57725;47.526;18.986;2023-05-20T02:28:47;100222.22;;;16.87;94.13
70314;BME280;57725;47.526;18.986;2023-05-20T02:31:15;100215.38;;;16.84;94.25
70314;BME280;57725;47.526;18.986;2023-05-20T02:33:44;100215.38;;;16.84;94.46
70314;BME280;57725;47.526;18.986;2023-05-20T02:36:11;100225.09;;;16.84;94.19
70314;BME280;57725;47.526;18.986;2023-05-20T02:38:39;100215.38;;;16.84;94.22
70314;BME280;57725;47.526;18.986;2023-05-20T02:41:05;100221.69;;;16.82;94.18
70314;BME280;57725;47.526;18.986;2023-05-20T02:43:31;100223.59;;;16.80;94.13
70314;BME280;57725;47.526;18.986;2023-05-20T02:45:57;100235.75;;;16.82;94.35
70314;BME280;57725;47.526;18.986;2023-05-20T02:48:22;100228.78;;;16.81;94.34
70314;BME280;57725;47.526;18.986;2023-05-20T02:50:48;100230.75;;;16.78;94.50
70314;BME280;57725;47.526;18.986;2023-05-20T02:53:14;100231.59;;;16.78;94.22
70314;BME280;57725;47.526;18.986;2023-05-20T02:55:44;100233.28;;;16.79;94.36
70314;BME280;57725;47.526;18.986;2023-05-20T02:58:11;100231.59;;;16.78;94.38
70314;BME280;57725;47.526;18.986;2023-05-20T03:00:39;100226.31;;;16.78;94.47
70314;BME280;57725;47.526;18.986;2023-05-20T03:03:08;100232.53;;;16.77;94.35
70314;BME280;57725;47.526;18.986;2023-05-20T03:05:40;100223.75;;;16.77;94.27
70314;BME280;57725;47.526;18.986;2023-05-20T03:08:10;100227.34;;;16.76;94.46
70314;BME280;57725;47.526;18.986;2023-05-20T03:10:39;100226.81;;;16.71;94.36
70314;BME280;57725;47.526;18.986;2023-05-20T03:13:06;100230.06;;;16.74;94.30
70314;BME280;57725;47.526;18.986;2023-05-20T03:15:41;100239.78;;;16.74;94.22
70314;BME280;57725;47.526;18.986;2023-05-20T03:18:09;100230.19;;;16.73;94.46
70314;BME280;57725;47.526;18.986;2023-05-20T03:20:36;100237.28;;;16.72;94.21
70314;BME280;57725;47.526;18.986;2023-05-20T03:23:03;100240.00;;;16.71;94.43
70314;BME280;57725;47.526;18.986;2023-05-20T03:25:28;100236.41;;;16.72;94.40
70314;BME280;57725;47.526;18.986;2023-05-20T03:27:54;100235.00;;;16.66;94.49
70314;BME280;57725;47.526;18.986;2023-05-20T03:30:19;100240.09;;;16.69;94.42
70314;BME280;57725;47.526;18.986;2023-05-20T03:32:48;100245.47;;;16.68;94.72
70314;BME280;57725;47.526;18.986;2023-05-20T03:35:16;100246.31;;;16.68;94.56
70314;BME280;57725;47.526;18.986;2023-05-20T03:37:41;100249.81;;;16.69;94.50
70314;BME280;57725;47.526;18.986;2023-05-20T03:40:11;100254.31;;;16.67;94.55
70314;BME280;57725;47.526;18.986;2023-05-20T03:42:38;100253.47;;;16.66;94.60
70314;BME280;57725;47.526;18.986;2023-05-20T03:45:04;100253.56;;;16.64;94.50
70314;BME280;57725;47.526;18.986;2023-05-20T03:47:33;100255.25;;;16.65;94.42
70314;BME280;57725;47.526;18.986;2023-05-20T03:50:18;100258.84;;;16.64;94.59
70314;BME280;57725;47.526;18.986;2023-05-20T03:52:49;100255.44;;;16.62;94.69
70314;BME280;57725;47.526;18.986;2023-05-20T03:55:19;100261.56;;;16.63;94.70
70314;BME280;57725;47.526;18.986;2023-05-20T03:57:44;100267.78;;;16.62;94.63
70314;BME280;57725;47.526;18.986;2023-05-20T04:00:13;100266.91;;;16.61;94.64
70314;BME280;57725;47.526;18.986;2023-05-20T04:02:38;100271.38;;;16.61;94.65
70314;BME280;57725;47.526;18.986;2023-05-20T04:05:04;100262.78;;;16.57;94.53
70314;BME280;57725;47.526;18.986;2023-05-20T04:07:32;100268.81;;;16.59;94.62
70314;BME280;57725;47.526;18.986;2023-05-20T04:10:00;100274.19;;;16.58;94.64
70314;BME280;57725;47.526;18.986;2023-05-20T04:12:26;100272.41;;;16.58;94.64
70314;BME280;57725;47.526;18.986;2023-05-20T04:14:59;100275.97;;;16.57;94.52
70314;BME280;57725;47.526;18.986;2023-05-20T04:17:28;100277.78;;;16.57;94.60
70314;BME280;57725;47.526;18.986;2023-05-20T04:19:56;100286.63;;;16.56;94.83
70314;BME280;57725;47.526;18.986;2023-05-20T04:22:26;100277.94;;;16.54;94.69
70314;BME280;57725;47.526;18.986;2023-05-20T04:24:53;100279.66;;;16.55;94.67
70314;BME280;57725;47.526;18.986;2023-05-20T04:27:22;100279.75;;;16.53;94.79
70314;BME280;57725;47.526;18.986;2023-05-20T04:29:51;100273.69;;;16.51;94.78
70314;BME280;57725;47.526;18.986;2023-05-20T04:32:20;100279.81;;;16.52;94.75
70314;BME280;57725;47.526;18.986;2023-05-20T04:34:46;100274.53;;;16.52;94.79
70314;BME280;57725;47.526;18.986;2023-05-20T04:37:12;100274.53;;;16.52;95.06
70314;BME280;57725;47.526;18.986;2023-05-20T04:39:45;100286.88;;;16.51;94.90
70314;BME280;57725;47.526;18.986;2023-05-20T04:42:12;100286.03;;;16.51;94.91
70314;BME280;57725;47.526;18.986;2023-05-20T04:44:37;100288.81;;;16.49;94.92
70314;BME280;57725;47.526;18.986;2023-05-20T04:47:03;100289.75;;;16.48;94.81
70314;BME280;57725;47.526;18.986;2023-05-20T04:49:34;100284.47;;;16.48;95.09
70314;BME280;57725;47.526;18.986;2023-05-20T04:51:59;100284.47;;;16.48;94.89
70314;BME280;57725;47.526;18.986;2023-05-20T04:54:25;100283.69;;;16.46;94.87
70314;BME280;57725;47.526;18.986;2023-05-20T04:56:50;100284.56;;;16.47;95.10
70314;BME280;57725;47.526;18.986;2023-05-20T04:59:16;100280.22;;;16.46;95.12
70314;BME280;57725;47.526;18.986;2023-05-20T05:01:41;100278.50;;;16.45;95.11
70314;BME280;57725;47.526;18.986;2023-05-20T05:04:07;100277.56;;;16.46;95.24
70314;BME280;57725;47.526;18.986;2023-05-20T05:06:34;100282.00;;;16.45;95.13
70314;BME280;57725;47.526;18.986;2023-05-20T05:09:00;100280.31;;;16.44;95.16
70314;BME280;57725;47.526;18.986;2023-05-20T05:11:28;100283.88;;;16.43;95.19
70314;BME280;57725;47.526;18.986;2023-05-20T05:13:56;100276.91;;;16.42;95.30
70314;BME280;57725;47.526;18.986;2023-05-20T05:16:21;100272.47;;;16.43;95.34
70314;BME280;57725;47.526;18.986;2023-05-20T05:18:49;100272.56;;;16.41;95.51
70314;BME280;57725;47.526;18.986;2023-05-20T05:21:15;100280.38;;;16.43;95.45
70314;BME280;57725;47.526;18.986;2023-05-20T05:23:40;100280.47;;;16.41;95.51
70314;BME280;57725;47.526;18.986;2023-05-20T05:26:06;100273.41;;;16.42;95.20
70314;BME280;57725;47.526;18.986;2023-05-20T05:28:32;100278.78;;;16.40;95.46
70314;BME280;57725;47.526;18.986;2023-05-20T05:30:59;100285.00;;;16.39;95.58
70314;BME280;57725;47.526;18.986;2023-05-20T05:33:26;100286.69;;;16.40;95.45
70314;BME280;57725;47.526;18.986;2023-05-20T05:35:51;100291.13;;;16.40;95.46
70314;BME280;57725;47.526;18.986;2023-05-20T05:38:19;100288.59;;;16.38;95.35
70314;BME280;57725;47.526;18.986;2023-05-20T05:40:47;100285.00;;;16.39;95.65
70314;BME280;57725;47.526;18.986;2023-05-20T05:43:13;100282.47;;;16.38;95.50
70314;BME280;57725;47.526;18.986;2023-05-20T05:45:40;100280.00;;;16.35;95.71
70314;BME280;57725;47.526;18.986;2023-05-20T05:48:09;100297.53;;;16.36;95.73
70314;BME280;57725;47.526;18.986;2023-05-20T05:50:35;100296.69;;;16.35;95.73
70314;BME280;57725;47.526;18.986;2023-05-20T05:53:00;100301.78;;;16.38;95.64
70314;BME280;57725;47.526;18.986;2023-05-20T05:55:28;100294.91;;;16.36;95.68
70314;BME280;57725;47.526;18.986;2023-05-20T05:57:58;100300.94;;;16.38;95.74
70314;BME280;57725;47.526;18.986;2023-05-20T06:00:24;100293.97;;;16.37;95.73
70314;BME280;57725;47.526;18.986;2023-05-20T06:02:49;100301.88;;;16.37;95.98
70314;BME280;57725;47.526;18.986;2023-05-20T06:05:17;100296.69;;;16.35;95.75
70314;BME280;57725;47.526;18.986;2023-05-20T06:07:43;100297.47;;;16.37;96.28
70314;BME280;57725;47.526;18.986;2023-05-20T06:10:09;100287.75;;;16.38;97.00
70314;BME280;57725;47.526;18.986;2023-05-20T06:12:36;100292.06;;;16.39;97.10
70314;BME280;57725;47.526;18.986;2023-05-20T06:15:02;100291.97;;;16.40;96.92
70314;BME280;57725;47.526;18.986;2023-05-20T06:17:31;100291.78;;;16.43;97.41
70314;BME280;57725;47.526;18.986;2023-05-20T06:20:01;100297.84;;;16.45;97.50
70314;BME280;57725;47.526;18.986;2023-05-20T06:22:26;100295.97;;;16.47;97.63
70314;BME280;57725;47.526;18.986;2023-05-20T06:24:55;100299.34;;;16.49;97.68
70314;BME280;57725;47.526;18.986;2023-05-20T06:27:27;100290.47;;;16.50;97.97
70314;BME280;57725;47.526;18.986;2023-05-20T06:29:54;100288.41;;;16.55;98.06
70314;BME280;57725;47.526;18.986;2023-05-20T06:32:20;100290.03;;;16.58;98.23
70314;BME280;57725;47.526;18.986;2023-05-20T06:34:45;100285.50;;;16.60;98.31
70314;BME280;57725;47.526;18.986;2023-05-20T06:37:10;100289.75;;;16.62;98.51
70314;BME280;57725;47.526;18.986;2023-05-20T06:39:36;100282.59;;;16.64;98.55
70314;BME280;57725;47.526;18.986;2023-05-20T06:42:02;100277.22;;;16.66;98.90
70314;BME280;57725;47.526;18.986;2023-05-20T06:44:30;100276.28;;;16.67;99.34
70314;BME280;57725;47.526;18.986;2023-05-20T06:47:01;100280.44;;;16.71;99.28
70314;BME280;57725;47.526;18.986;2023-05-20T06:49:30;100281.31;;;16.72;99.37
70314;BME280;57725;47.526;18.986;2023-05-20T06:51:58;100277.81;;;16.71;99.55
70314;BME280;57725;47.526;18.986;2023-05-20T06:54:30;100279.38;;;16.74;99.75
70314;BME280;57725;47.526;18.986;2023-05-20T06:56:58;100288.91;;;16.76;99.56
70314;BME280;57725;47.526;18.986;2023-05-20T06:59:24;100284.56;;;16.75;99.23
70314;BME280;57725;47.526;18.986;2023-05-20T07:01:51;100274.78;;;16.77;99.49
70314;BME280;57725;47.526;18.986;2023-05-20T07:04:17;100282.59;;;16.79;99.50
70314;BME280;57725;47.526;18.986;2023-05-20T07:06:42;100280.81;;;16.79;99.69
70314;BME280;57725;47.526;18.986;2023-05-20T07:09:10;100291.28;;;16.81;99.32
70314;BME280;57725;47.526;18.986;2023-05-20T07:11:38;100272.03;;;16.79;98.89
70314;BME280;57725;47.526;18.986;2023-05-20T07:14:06;100278.25;;;16.78;99.05
70314;BME280;57725;47.526;18.986;2023-05-20T07:16:35;100281.75;;;16.78;98.87
70314;BME280;57725;47.526;18.986;2023-05-20T07:19:05;100274.69;;;16.79;99.05
70314;BME280;57725;47.526;18.986;2023-05-20T07:21:33;100273.75;;;16.80;98.73
70314;BME280;57725;47.526;18.986;2023-05-20T07:24:01;100261.47;;;16.79;98.91
70314;BME280;57725;47.526;18.986;2023-05-20T07:26:26;100265.91;;;16.78;98.58
70314;BME280;57725;47.526;18.986;2023-05-20T07:28:52;100262.44;;;16.78;98.45
70314;BME280;57725;47.526;18.986;2023-05-20T07:31:17;100260.72;;;16.77;98.37
70314;BME280;57725;47.526;18.986;2023-05-20T07:33:45;100259.03;;;16.76;98.28
70314;BME280;57725;47.526;18.986;2023-05-20T07:36:13;100259.03;;;16.76;97.93
70314;BME280;57725;47.526;18.986;2023-05-20T07:38:39;100272.22;;;16.76;97.92
70314;BME280;57725;47.526;18.986;2023-05-20T07:41:07;100264.22;;;16.77;97.73
70314;BME280;57725;47.526;18.986;2023-05-20T07:43:38;100271.09;;;16.80;97.97
70314;BME280;57725;47.526;18.986;2023-05-20T07:46:06;100268.47;;;16.80;97.79
70314;BME280;57725;47.526;18.986;2023-05-20T07:48:34;100262.25;;;16.81;97.99
70314;BME280;57725;47.526;18.986;2023-05-20T07:51:00;100264.88;;;16.81;97.83
70314;BME280;57725;47.526;18.986;2023-05-20T07:53:28;100273.66;;;16.81;97.70
70314;BME280;57725;47.526;18.986;2023-05-20T07:55:55;100262.16;;;16.82;97.55
70314;BME280;57725;47.526;18.986;2023-05-20T07:58:21;100255.16;;;16.81;97.70
70314;BME280;57725;47.526;18.986;2023-05-20T08:00:51;100261.31;;;16.82;97.47
70314;BME280;57725;47.526;18.986;2023-05-20T08:03:19;100249.59;;;16.86;97.75
70314;BME280;57725;47.526;18.986;2023-05-20T08:05:46;100253.91;;;16.87;97.40
70314;BME280;57725;47.526;18.986;2023-05-20T08:08:11;100250.44;;;16.86;97.28
70314;BME280;57725;47.526;18.986;2023-05-20T08:10:37;100240.09;;;16.83;97.48
70314;BME280;57725;47.526;18.986;2023-05-20T08:13:06;100247.59;;;16.89;97.20
70314;BME280;57725;47.526;18.986;2023-05-20T08:15:32;100244.13;;;16.89;97.08
70314;BME280;57725;47.526;18.986;2023-05-20T08:17:57;100253.56;;;16.93;96.91
70314;BME280;57725;47.526;18.986;2023-05-20T08:20:23;100254.41;;;16.93;96.80
70314;BME280;57725;47.526;18.986;2023-05-20T08:22:50;100246.47;;;16.93;96.77
70314;BME280;57725;47.526;18.986;2023-05-20T08:25:19;100243.75;;;16.95;96.71
70314;BME280;57725;47.526;18.986;2023-05-20T08:27:44;100235.50;;;16.99;96.67
70314;BME280;57725;47.526;18.986;2023-05-20T08:30:10;100235.59;;;16.98;96.65
70314;BME280;57725;47.526;18.986;2023-05-20T08:32:38;100241.66;;;17.00;96.52
70314;BME280;57725;47.526;18.986;2023-05-20T08:35:06;100233.53;;;17.03;96.49
70314;BME280;57725;47.526;18.986;2023-05-20T08:37:35;100235.16;;;17.06;96.31
70314;BME280;57725;47.526;18.986;2023-05-20T08:40:00;100233.44;;;17.05;96.12
70314;BME280;57725;47.526;18.986;2023-05-20T08:42:26;100232.50;;;17.06;96.11
70314;BME280;57725;47.526;18.986;2023-05-20T08:44:56;100238.50;;;17.08;96.30
70314;BME280;57725;47.526;18.986;2023-05-20T08:47:28;100233.03;;;17.11;96.03
70314;BME280;57725;47.526;18.986;2023-05-20T08:49:53;100221.63;;;17.10;95.79
70314;BME280;57725;47.526;18.986;2023-05-20T08:52:20;100222.28;;;17.14;95.87
70314;BME280;57725;47.526;18.986;2023-05-20T08:54:49;100221.25;;;17.16;95.86
70314;BME280;57725;47.526;18.986;2023-05-20T08:57:14;100215.03;;;17.17;95.95
70314;BME280;57725;47.526;18.986;2023-05-20T08:59:44;100213.00;;;17.21;95.88
70314;BME280;57725;47.526;18.986;2023-05-20T09:02:12;100217.34;;;17.22;95.81
70314;BME280;57725;47.526;18.986;2023-05-20T09:04:40;100209.31;;;17.23;95.76
70314;BME280;57725;47.526;18.986;2023-05-20T09:07:11;100222.34;;;17.26;95.63
70314;BME280;57725;47.526;18.986;2023-05-20T09:09:38;100199.50;;;17.25;95.63
70314;BME280;57725;47.526;18.986;2023-05-20T09:12:04;100208.94;;;17.29;95.59
70314;BME280;57725;47.526;18.986;2023-05-20T09:14:32;100207.78;;;17.33;95.66
70314;BME280;57725;47.526;18.986;2023-05-20T09:16:58;100202.38;;;17.35;95.55
70314;BME280;57725;47.526;18.986;2023-05-20T09:19:25;100205.03;;;17.35;95.44
70314;BME280;57725;47.526;18.986;2023-05-20T09:21:52;100196.06;;;17.37;95.33
70314;BME280;57725;47.526;18.986;2023-05-20T09:24:21;100206.53;;;17.39;95.14
70314;BME280;57725;47.526;18.986;2023-05-20T09:26:47;100193.31;;;17.39;95.26
70314;BME280;57725;47.526;18.986;2023-05-20T09:29:15;100191.31;;;17.43;95.14
70314;BME280;57725;47.526;18.986;2023-05-20T09:31:41;100193.66;;;17.47;95.03
70314;BME280;57725;47.526;18.986;2023-05-20T09:34:11;100192.63;;;17.50;95.07
70314;BME280;57725;47.526;18.986;2023-05-20T09:36:38;100179.31;;;17.51;95.11
70314;BME280;57725;47.526;18.986;2023-05-20T09:39:09;100186.38;;;17.51;94.74
70314;BME280;57725;47.526;18.986;2023-05-20T09:42:06;100184.25;;;17.56;94.79
70314;BME280;57725;47.526;18.986;2023-05-20T09:44:31;100181.41;;;17.59;94.66
70314;BME280;57725;47.526;18.986;2023-05-20T09:46:58;100176.78;;;17.62;94.79
70314;BME280;57725;47.526;18.986;2023-05-20T09:49:25;100161.81;;;17.63;94.76
70314;BME280;57725;47.526;18.986;2023-05-20T09:51:55;100165.06;;;17.66;94.59
70314;BME280;57725;47.526;18.986;2023-05-20T09:54:25;100158.84;;;17.67;94.84
70314;BME280;57725;47.526;18.986;2023-05-20T09:56:52;100156.00;;;17.70;95.08
70314;BME280;57725;47.526;18.986;2023-05-20T09:59:22;100147.09;;;17.71;94.81
70314;BME280;57725;47.526;18.986;2023-05-20T10:01:48;100148.59;;;17.76;94.94
70314;BME280;57725;47.526;18.986;2023-05-20T10:04:17;100156.41;;;17.77;94.59
70314;BME280;57725;47.526;18.986;2023-05-20T10:07:02;100148.28;;;17.80;94.26
70314;BME280;57725;47.526;18.986;2023-05-20T10:15:25;100139.84;;;17.88;94.60
70314;BME280;57725;47.526;18.986;2023-05-20T10:20:47;100137.72;;;17.93;94.59
70314;BME280;57725;47.526;18.986;2023-05-20T10:23:23;100138.34;;;17.96;94.48
70314;BME280;57725;47.526;18.986;2023-05-20T10:25:53;100141.75;;;17.98;94.37
70314;BME280;57725;47.526;18.986;2023-05-20T10:28:29;100132.00;;;17.99;94.24
70314;BME280;57725;47.526;18.986;2023-05-20T10:30:58;100133.47;;;18.03;94.22
70314;BME280;57725;47.526;18.986;2023-05-20T10:33:27;100122.78;;;18.04;93.85
70314;BME280;57725;47.526;18.986;2023-05-20T10:35:57;100119.19;;;18.05;94.23
70314;BME280;57725;47.526;18.986;2023-05-20T10:38:22;100118.13;;;18.08;94.11
70314;BME280;57725;47.526;18.986;2023-05-20T10:40:51;100118.63;;;18.13;93.96
70314;BME280;57725;47.526;18.986;2023-05-20T10:43:25;100106.25;;;18.14;93.41
70314;BME280;57725;47.526;18.986;2023-05-20T10:45:53;100112.09;;;18.19;93.72
70314;BME280;57725;47.526;18.986;2023-05-20T10:48:26;100106.78;;;18.19;93.65
70314;BME280;57725;47.526;18.986;2023-05-20T10:51:01;100119.69;;;18.23;93.66
70314;BME280;57725;47.526;18.986;2023-05-20T10:53:38;100105.63;;;18.23;93.41
70314;BME280;57725;47.526;18.986;2023-05-20T10:56:04;100097.34;;;18.27;93.31
70314;BME280;57725;47.526;18.986;2023-05-20T10:58:37;100097.16;;;18.30;93.32
70314;BME280;57725;47.526;18.986;2023-05-20T11:01:08;100096.94;;;18.33;93.21
70314;BME280;57725;47.526;18.986;2023-05-20T11:03:39;100091.50;;;18.35;93.06
70314;BME280;57725;47.526;18.986;2023-05-20T11:06:16;100088.53;;;18.39;93.13
70314;BME280;57725;47.526;18.986;2023-05-20T11:08:42;100092.88;;;18.40;92.86
70314;BME280;57725;47.526;18.986;2023-05-20T11:11:11;100081.22;;;18.43;92.73
70314;BME280;57725;47.526;18.986;2023-05-20T11:13:37;100094.22;;;18.46;92.89
70314;BME280;57725;47.526;18.986;2023-05-20T11:16:03;100089.56;;;18.50;93.10
70314;BME280;57725;47.526;18.986;2023-05-20T11:18:30;100087.88;;;18.49;93.39
70314;BME280;57725;47.526;18.986;2023-05-20T11:20:57;100085.88;;;18.52;93.18
70314;BME280;57725;47.526;18.986;2023-05-20T11:23:24;100072.63;;;18.52;93.32
70314;BME280;57725;47.526;18.986;2023-05-20T11:25:54;100079.63;;;18.53;92.89
70314;BME280;57725;47.526;18.986;2023-05-20T11:28:20;100089.88;;;18.58;92.65
70314;BME280;57725;47.526;18.986;2023-05-20T11:30:51;100087.88;;;18.61;92.54
70314;BME280;57725;47.526;18.986;2023-05-20T11:33:19;100085.97;;;18.63;92.63
70314;BME280;57725;47.526;18.986;2023-05-20T11:35:50;100095.50;;;18.66;92.34
70314;BME280;57725;47.526;18.986;2023-05-20T11:38:16;100080.34;;;18.68;92.62
70314;BME280;57725;47.526;18.986;2023-05-20T11:40:45;100082.75;;;18.71;92.32
70314;BME280;57725;47.526;18.986;2023-05-20T11:43:12;100081.78;;;18.72;92.18
70314;BME280;57725;47.526;18.986;2023-05-20T11:45:43;100081.56;;;18.75;92.22
70314;BME280;57725;47.526;18.986;2023-05-20T11:48:09;100072.56;;;18.77;91.95
70314;BME280;57725;47.526;18.986;2023-05-20T11:50:41;100074.16;;;18.80;91.95
70314;BME280;57725;47.526;18.986;2023-05-20T11:53:14;100080.16;;;18.82;91.79
70314;BME280;57725;47.526;18.986;2023-05-20T11:55:45;100073.78;;;18.85;91.60
70314;BME280;57725;47.526;18.986;2023-05-20T11:58:17;100068.50;;;18.85;91.61
70314;BME280;57725;47.526;18.986;2023-05-20T12:00:43;100072.63;;;18.89;91.54
70314;BME280;57725;47.526;18.986;2023-05-20T12:03:11;100069.97;;;18.89;91.23
70314;BME280;57725;47.526;18.986;2023-05-20T12:05:37;100070.47;;;18.94;91.40
70314;BME280;57725;47.526;18.986;2023-05-20T12:08:03;100069.50;;;18.95;91.25
70314;BME280;57725;47.526;18.986;2023-05-20T12:10:29;100066.75;;;18.96;91.14
70314;BME280;57725;47.526;18.986;2023-05-20T12:12:55;100065.69;;;18.99;90.90
70314;BME280;57725;47.526;18.986;2023-05-20T12:15:20;100069.06;;;19.01;91.22
70314;BME280;57725;47.526;18.986;2023-05-20T12:17:50;100064.50;;;19.03;90.74
70314;BME280;57725;47.526;18.986;2023-05-20T12:20:18;100065.19;;;19.05;90.74
70314;BME280;57725;47.526;18.986;2023-05-20T12:22:47;100067.75;;;19.06;90.76
70314;BME280;57725;47.526;18.986;2023-05-20T12:25:14;100073.78;;;19.08;90.61
70314;BME280;57725;47.526;18.986;2023-05-20T12:27:40;100056.31;;;19.06;90.59
70314;BME280;57725;47.526;18.986;2023-05-20T12:30:08;100057.66;;;19.11;90.77
70314;BME280;57725;47.526;18.986;2023-05-20T12:32:37;100062.00;;;19.12;90.85
70314;BME280;57725;47.526;18.986;2023-05-20T12:35:05;100057.44;;;19.14;90.59
70314;BME280;57725;47.526;18.986;2023-05-20T12:37:31;100044.88;;;19.16;90.66
70314;BME280;57725;47.526;18.986;2023-05-20T12:39:58;100048.38;;;19.17;90.44
70314;BME280;57725;47.526;18.986;2023-05-20T12:42:23;100042.97;;;19.18;90.30
70314;BME280;57725;47.526;18.986;2023-05-20T12:44:49;100034.19;;;19.18;90.12
70314;BME280;57725;47.526;18.986;2023-05-20T12:47:19;100048.06;;;19.22;90.17
70314;BME280;57725;47.526;18.986;2023-05-20T12:49:50;100051.53;;;19.22;90.40
70314;BME280;57725;47.526;18.986;2023-05-20T12:52:16;100043.47;;;19.24;90.41